Time;durP1;ratioP1;P1;durP2;ratioP2;P2;SDS_P1;SDS_P2;PMS_P1;PMS_P2;Temp;Humidity;BMP_temperature;BMP_pressure;BME280_temperature;BME280_humidity;BME280_pressure;Samples;Min_cycle;Max_cycle;Signal;HPM_P1;HPM_P2
2023/06/25 00:00:22;;;;;;;;;;;26.80;44.40;;;;;;5038234;28;19988;-65
2023/06/25 00:02:48;;;;;;;;;;;26.80;44.40;;;;;;5041114;28;20356;-66
2023/06/25 00:05:13;;;;;;;;;;;26.80;44.40;;;;;;5039596;28;19940;-65
2023/06/25 00:07:40;;;;;;;;;;;26.80;44.40;;;;;;5040145;28;19913;-65
2023/06/25 00:10:05;;;;;;;;;;;26.80;44.40;;;;;;5041254;28;19909;-65
2023/06/25 00:12:32;;;;;;;;;;;26.80;44.40;;;;;;5041085;28;19920;-65
2023/06/25 00:14:58;;;;;;;;;;;26.80;44.40;;;;;;5039874;28;19955;-65
2023/06/25 00:17:27;;;;;;;;;;;26.80;44.40;;;;;;5040766;28;19909;-65
2023/06/25 00:19:56;;;;;;;;;;;26.80;44.40;;;;;;5039649;28;20357;-65
2023/06/25 00:22:22;;;;;;;;;;;26.80;44.40;;;;;;5040241;28;19958;-65
2023/06/25 00:24:47;;;;;;;;;;;26.80;44.40;;;;;;5039245;28;20369;-65
2023/06/25 00:27:13;;;;;;;;;;;26.80;44.40;;;;;;5037387;28;19974;-65
2023/06/25 00:29:39;;;;;;;;;;;26.80;44.40;;;;;;5039822;28;19963;-65
2023/06/25 00:32:04;;;;;;;;;;;26.80;44.40;;;;;;5042276;28;19975;-65
2023/06/25 00:34:30;;;;;;;;;;;26.80;44.40;;;;;;5038197;28;20022;-65
2023/06/25 00:36:55;;;;;;;;;;;26.80;44.40;;;;;;5039639;28;19909;-65
2023/06/25 00:39:21;;;;;;;;;;;26.80;44.40;;;;;;5041244;28;20250;-65
2023/06/25 00:41:49;;;;;;;;;;;26.80;44.40;;;;;;5038668;28;19909;-65
2023/06/25 00:44:15;;;;;;;;;;;26.80;44.40;;;;;;5040515;28;19928;-65
2023/06/25 00:46:40;;;;;;;;;;;26.80;44.40;;;;;;5039200;28;20233;-66
2023/06/25 00:49:06;;;;;;;;;;;26.80;44.40;;;;;;5040003;28;19909;-65
2023/06/25 00:51:32;;;;;;;;;;;26.80;44.40;;;;;;5038683;28;19951;-65
2023/06/25 00:53:57;;;;;;;;;;;26.80;44.40;;;;;;5038422;28;20313;-66
2023/06/25 00:56:32;;;;;;;;;;;26.80;44.40;;;;;;5040169;28;19909;-65
2023/06/25 00:59:02;;;;;;;;;;;26.80;44.40;;;;;;5039324;28;20364;-65
2023/06/25 01:01:48;;;;;;;;;;;26.70;44.40;;;;;;5040944;28;19909;-65
2023/06/25 01:04:25;;;;;;;;;;;26.80;44.40;;;;;;5038211;28;20028;-65
2023/06/25 01:06:52;;;;;;;;;;;26.80;44.40;;;;;;5037037;28;20396;-65
2023/06/25 01:09:20;;;;;;;;;;;26.80;44.40;;;;;;5036809;28;20345;-65
2023/06/25 01:12:05;;;;;;;;;;;26.80;44.40;;;;;;5035626;28;19919;-66
2023/06/25 01:14:32;;;;;;;;;;;26.80;44.40;;;;;;5036695;28;19916;-65
2023/06/25 01:16:58;;;;;;;;;;;26.80;44.40;;;;;;5039816;28;19905;-65
2023/06/25 01:19:29;;;;;;;;;;;26.80;44.40;;;;;;5039404;28;19936;-65
2023/06/25 01:22:04;;;;;;;;;;;26.80;44.50;;;;;;5036421;28;19916;-65
2023/06/25 01:24:32;;;;;;;;;;;26.80;44.40;;;;;;5038474;28;20281;-65
2023/06/25 01:26:59;;;;;;;;;;;26.70;44.50;;;;;;5039456;28;19909;-65
2023/06/25 01:29:26;;;;;;;;;;;26.70;44.40;;;;;;5038356;28;19908;-65
2023/06/25 01:31:51;;;;;;;;;;;26.80;44.40;;;;;;5039617;28;19916;-65
2023/06/25 01:34:19;;;;;;;;;;;26.70;44.40;;;;;;5038168;28;20380;-65
2023/06/25 01:36:51;;;;;;;;;;;26.70;44.40;;;;;;5038565;28;19952;-65
2023/06/25 01:39:20;;;;;;;;;;;26.70;44.40;;;;;;5038046;28;20404;-65
2023/06/25 01:41:47;;;;;;;;;;;26.70;44.40;;;;;;5038324;28;20357;-65
2023/06/25 01:44:13;;;;;;;;;;;26.70;44.40;;;;;;5038699;28;20384;-64
2023/06/25 01:46:39;;;;;;;;;;;26.70;44.40;;;;;;5038590;28;19905;-65
2023/06/25 01:49:04;;;;;;;;;;;26.70;44.40;;;;;;5039129;28;19916;-65
2023/06/25 01:51:31;;;;;;;;;;;26.70;44.40;;;;;;5039240;28;20428;-64
2023/06/25 01:53:57;;;;;;;;;;;26.70;44.40;;;;;;5039170;28;19913;-65
2023/06/25 01:56:22;;;;;;;;;;;26.70;44.40;;;;;;5038495;28;20328;-64
2023/06/25 01:58:50;;;;;;;;;;;26.70;44.40;;;;;;5037407;28;20409;-64
2023/06/25 02:01:15;;;;;;;;;;;26.70;44.40;;;;;;5037391;28;19958;-65
2023/06/25 02:03:41;;;;;;;;;;;26.70;44.40;;;;;;5037171;28;19908;-64
2023/06/25 02:06:06;;;;;;;;;;;26.70;44.40;;;;;;5035770;28;20429;-65
2023/06/25 02:08:32;;;;;;;;;;;26.70;44.40;;;;;;5038391;28;19904;-65
2023/06/25 02:10:57;;;;;;;;;;;26.70;44.40;;;;;;5036134;28;20079;-65
2023/06/25 02:13:23;;;;;;;;;;;26.70;44.40;;;;;;5043135;28;20269;-64
2023/06/25 02:15:48;;;;;;;;;;;26.70;44.40;;;;;;5039362;28;19912;-64
2023/06/25 02:18:14;;;;;;;;;;;26.70;44.40;;;;;;5039153;28;20276;-64
2023/06/25 02:20:39;;;;;;;;;;;26.70;44.40;;;;;;5035938;28;19909;-64
2023/06/25 02:23:04;;;;;;;;;;;26.70;44.40;;;;;;5039786;28;19908;-66
2023/06/25 02:25:30;;;;;;;;;;;26.70;44.40;;;;;;5042224;28;20400;-66
2023/06/25 02:27:56;;;;;;;;;;;26.70;44.40;;;;;;5044048;28;20003;-66
2023/06/25 02:30:21;;;;;;;;;;;26.70;44.40;;;;;;5045138;28;19909;-64
2023/06/25 02:32:46;;;;;;;;;;;26.70;44.40;;;;;;5041678;28;19991;-64
2023/06/25 02:35:12;;;;;;;;;;;26.70;44.40;;;;;;5042981;28;19909;-64
2023/06/25 02:37:37;;;;;;;;;;;26.70;44.40;;;;;;5040820;28;20353;-65
2023/06/25 02:40:03;;;;;;;;;;;26.70;44.40;;;;;;5038558;28;20257;-65
2023/06/25 02:42:29;;;;;;;;;;;26.70;44.40;;;;;;5042966;28;20372;-65
2023/06/25 02:44:54;;;;;;;;;;;26.70;44.40;;;;;;5040956;28;19905;-64
2023/06/25 02:47:20;;;;;;;;;;;26.70;44.40;;;;;;5040520;28;20023;-64
2023/06/25 02:49:45;;;;;;;;;;;26.70;44.40;;;;;;5041412;28;19904;-65
2023/06/25 02:52:11;;;;;;;;;;;26.70;44.40;;;;;;5041114;28;19917;-64
2023/06/25 02:54:36;;;;;;;;;;;26.60;44.30;;;;;;5037840;28;19949;-65
2023/06/25 02:57:02;;;;;;;;;;;26.60;44.30;;;;;;5042755;28;19966;-64
2023/06/25 02:59:27;;;;;;;;;;;26.70;44.40;;;;;;5042286;28;19912;-65
2023/06/25 03:01:53;;;;;;;;;;;26.70;44.40;;;;;;5043247;28;20000;-64
2023/06/25 03:04:18;;;;;;;;;;;26.60;44.30;;;;;;5041966;28;19905;-64
2023/06/25 03:06:44;;;;;;;;;;;26.70;44.40;;;;;;5040101;28;19971;-64
2023/06/25 03:09:09;;;;;;;;;;;26.70;44.40;;;;;;5043215;28;20015;-64
2023/06/25 03:11:35;;;;;;;;;;;26.60;44.30;;;;;;5043102;28;19909;-64
2023/06/25 03:14:00;;;;;;;;;;;26.60;44.30;;;;;;5042382;28;20357;-64
2023/06/25 03:16:26;;;;;;;;;;;26.60;44.30;;;;;;5043047;28;20008;-65
2023/06/25 03:18:51;;;;;;;;;;;26.60;44.30;;;;;;5041601;28;19908;-65
2023/06/25 03:21:17;;;;;;;;;;;26.60;44.30;;;;;;5039702;28;19912;-64
2023/06/25 03:23:42;;;;;;;;;;;26.60;44.30;;;;;;5043448;28;19909;-65
2023/06/25 03:26:08;;;;;;;;;;;26.60;44.30;;;;;;5041260;28;19905;-64
2023/06/25 03:28:33;;;;;;;;;;;26.60;44.30;;;;;;5041126;28;19920;-64
2023/06/25 03:30:59;;;;;;;;;;;26.60;44.30;;;;;;5037533;28;19908;-64
2023/06/25 03:33:24;;;;;;;;;;;26.60;44.30;;;;;;5040200;28;20392;-65
2023/06/25 03:35:50;;;;;;;;;;;26.60;44.30;;;;;;5038554;28;19909;-65
2023/06/25 03:38:15;;;;;;;;;;;26.60;44.30;;;;;;5040295;28;19968;-64
2023/06/25 03:40:41;;;;;;;;;;;26.60;44.30;;;;;;5042025;28;20004;-65
2023/06/25 03:43:06;;;;;;;;;;;26.60;44.30;;;;;;5039536;28;19913;-65
2023/06/25 03:45:32;;;;;;;;;;;26.60;44.30;;;;;;5041648;28;19904;-63
2023/06/25 03:47:57;;;;;;;;;;;26.50;44.20;;;;;;5039371;28;19909;-64
2023/06/25 03:50:23;;;;;;;;;;;26.60;44.40;;;;;;5040219;28;19917;-64
2023/06/25 03:52:48;;;;;;;;;;;26.60;44.30;;;;;;5042233;28;19924;-64
2023/06/25 03:55:14;;;;;;;;;;;26.60;44.30;;;;;;5037614;28;20361;-64
2023/06/25 03:57:39;;;;;;;;;;;26.60;44.30;;;;;;5042681;28;19920;-66
2023/06/25 04:00:05;;;;;;;;;;;26.50;44.20;;;;;;5038045;28;19915;-66
2023/06/25 04:02:31;;;;;;;;;;;26.60;44.40;;;;;;5037543;28;20384;-66
2023/06/25 04:04:56;;;;;;;;;;;26.60;44.30;;;;;;5037287;28;19955;-67
2023/06/25 04:07:22;;;;;;;;;;;26.50;44.20;;;;;;5039058;28;19928;-66
2023/06/25 04:09:47;;;;;;;;;;;26.50;44.30;;;;;;5039578;28;19909;-66
2023/06/25 04:12:13;;;;;;;;;;;26.50;44.30;;;;;;5040888;28;19996;-64
2023/06/25 04:14:38;;;;;;;;;;;26.50;44.30;;;;;;5041767;28;19909;-64
2023/06/25 04:17:04;;;;;;;;;;;26.50;44.30;;;;;;5040627;28;20019;-64
2023/06/25 04:19:29;;;;;;;;;;;26.50;44.30;;;;;;5040641;28;19928;-64
2023/06/25 04:21:55;;;;;;;;;;;26.50;44.30;;;;;;5039736;28;19917;-66
2023/06/25 04:24:20;;;;;;;;;;;26.50;44.30;;;;;;5039833;28;20357;-66
2023/06/25 04:26:46;;;;;;;;;;;26.50;44.30;;;;;;5039943;28;19959;-66
2023/06/25 04:29:11;;;;;;;;;;;26.50;44.30;;;;;;5041042;28;19958;-65
2023/06/25 04:31:37;;;;;;;;;;;26.50;44.30;;;;;;5041115;28;19912;-66
2023/06/25 04:34:03;;;;;;;;;;;26.50;44.30;;;;;;5040535;28;20019;-66
2023/06/25 04:36:29;;;;;;;;;;;26.50;44.30;;;;;;5037942;28;19913;-64
2023/06/25 04:38:54;;;;;;;;;;;26.50;44.30;;;;;;5040770;28;20340;-64
2023/06/25 04:41:20;;;;;;;;;;;26.40;44.20;;;;;;5041886;28;19931;-65
2023/06/25 04:43:46;;;;;;;;;;;26.50;44.30;;;;;;5041673;28;19960;-64
2023/06/25 04:46:12;;;;;;;;;;;26.50;44.30;;;;;;5041888;28;19998;-65
2023/06/25 04:48:37;;;;;;;;;;;26.50;44.30;;;;;;5038065;28;19944;-64
2023/06/25 04:51:03;;;;;;;;;;;26.50;44.40;;;;;;5040334;28;19909;-64
2023/06/25 04:53:29;;;;;;;;;;;26.50;44.30;;;;;;5040559;28;19940;-64
2023/06/25 04:55:54;;;;;;;;;;;26.40;44.30;;;;;;5039673;28;19909;-64
2023/06/25 04:58:20;;;;;;;;;;;26.40;44.30;;;;;;5035723;28;19905;-64
2023/06/25 05:00:45;;;;;;;;;;;26.50;44.30;;;;;;5036853;28;20971;-65
2023/06/25 05:03:11;;;;;;;;;;;26.50;44.30;;;;;;5040957;28;19904;-65
2023/06/25 05:05:36;;;;;;;;;;;26.40;44.30;;;;;;5037685;28;19909;-65
2023/06/25 05:08:03;;;;;;;;;;;26.40;44.30;;;;;;5038669;28;19934;-65
2023/06/25 05:10:28;;;;;;;;;;;26.40;44.30;;;;;;5039574;28;20276;-64
2023/06/25 05:12:54;;;;;;;;;;;26.40;44.30;;;;;;5039175;28;19999;-65
2023/06/25 05:15:19;;;;;;;;;;;26.40;44.30;;;;;;5038308;28;19999;-65
2023/06/25 05:17:45;;;;;;;;;;;26.40;44.30;;;;;;5038972;28;19909;-65
2023/06/25 05:20:11;;;;;;;;;;;26.40;44.30;;;;;;5034804;28;20329;-65
2023/06/25 05:22:36;;;;;;;;;;;26.40;44.30;;;;;;5036856;28;19905;-65
2023/06/25 05:25:02;;;;;;;;;;;26.40;44.30;;;;;;5037073;28;20011;-65
2023/06/25 05:27:27;;;;;;;;;;;26.40;44.30;;;;;;5038224;28;20333;-65
2023/06/25 05:29:53;;;;;;;;;;;26.40;44.40;;;;;;5040182;28;19920;-65
2023/06/25 05:32:18;;;;;;;;;;;26.40;44.30;;;;;;5040611;28;19904;-65
2023/06/25 05:34:44;;;;;;;;;;;26.40;44.30;;;;;;5039086;28;19915;-66
2023/06/25 05:37:09;;;;;;;;;;;26.40;44.30;;;;;;5037523;28;20003;-66
2023/06/25 05:39:35;;;;;;;;;;;26.40;44.30;;;;;;5046188;28;19917;-65
2023/06/25 05:42:00;;;;;;;;;;;26.40;44.30;;;;;;5040753;28;20004;-65
2023/06/25 05:44:26;;;;;;;;;;;26.40;44.40;;;;;;5038592;28;19953;-66
2023/06/25 05:46:51;;;;;;;;;;;26.30;44.30;;;;;;5037679;28;19980;-66
2023/06/25 05:49:17;;;;;;;;;;;26.40;44.40;;;;;;5039179;28;20317;-65
2023/06/25 05:51:43;;;;;;;;;;;26.40;44.40;;;;;;5038569;28;19952;-65
2023/06/25 05:54:09;;;;;;;;;;;26.40;44.40;;;;;;5038442;28;19958;-66
2023/06/25 05:56:34;;;;;;;;;;;26.30;44.30;;;;;;5036536;28;19944;-66
2023/06/25 05:59:00;;;;;;;;;;;26.40;44.40;;;;;;5043070;28;20360;-65
2023/06/25 06:01:25;;;;;;;;;;;26.40;44.40;;;;;;5040012;28;19954;-65
2023/06/25 06:03:54;;;;;;;;;;;26.40;44.40;;;;;;5042384;28;20265;-65
2023/06/25 06:06:19;;;;;;;;;;;26.30;44.40;;;;;;5039093;28;19993;-65
2023/06/25 06:08:45;;;;;;;;;;;26.30;44.40;;;;;;5043698;28;19909;-65
2023/06/25 06:11:10;;;;;;;;;;;26.30;44.40;;;;;;5041201;28;19905;-65
2023/06/25 06:13:36;;;;;;;;;;;26.30;44.40;;;;;;5043198;28;20391;-66
2023/06/25 06:16:02;;;;;;;;;;;26.30;44.40;;;;;;5042950;28;19905;-65
2023/06/25 06:18:28;;;;;;;;;;;26.30;44.40;;;;;;5041248;28;19991;-65
2023/06/25 06:20:53;;;;;;;;;;;26.30;44.40;;;;;;5043243;28;19920;-65
2023/06/25 06:23:19;;;;;;;;;;;26.30;44.40;;;;;;5040371;28;20015;-65
2023/06/25 06:25:44;;;;;;;;;;;26.30;44.40;;;;;;5042508;28;20674;-65
2023/06/25 06:28:10;;;;;;;;;;;26.30;44.40;;;;;;5040547;28;20054;-65
2023/06/25 06:30:35;;;;;;;;;;;26.30;44.40;;;;;;5043197;28;19916;-65
2023/06/25 06:33:00;;;;;;;;;;;26.30;44.40;;;;;;5057133;28;19916;-65
2023/06/25 06:35:26;;;;;;;;;;;26.30;44.40;;;;;;5043264;28;20652;-65
2023/06/25 06:37:51;;;;;;;;;;;26.30;44.40;;;;;;5041610;28;19909;-65
2023/06/25 06:40:17;;;;;;;;;;;26.30;44.50;;;;;;5041576;28;19920;-65
2023/06/25 06:42:42;;;;;;;;;;;26.30;44.50;;;;;;5045922;28;19915;-64
2023/06/25 06:45:08;;;;;;;;;;;26.30;44.50;;;;;;5040499;28;20004;-65
2023/06/25 06:47:34;;;;;;;;;;;26.30;44.50;;;;;;5043667;28;19980;-66
2023/06/25 06:50:00;;;;;;;;;;;26.30;44.50;;;;;;5042874;28;19908;-65
2023/06/25 06:52:26;;;;;;;;;;;26.30;44.50;;;;;;5038739;28;19943;-65
2023/06/25 06:54:51;;;;;;;;;;;26.30;44.50;;;;;;5040172;28;19940;-65
2023/06/25 06:57:17;;;;;;;;;;;26.30;44.60;;;;;;5042928;28;19909;-65
2023/06/25 06:59:46;;;;;;;;;;;26.30;44.60;;;;;;5043827;28;19916;-65
2023/06/25 07:02:11;;;;;;;;;;;26.30;44.60;;;;;;5039626;28;19987;-66
2023/06/25 07:04:37;;;;;;;;;;;26.30;44.60;;;;;;5039349;28;20004;-66
2023/06/25 07:07:03;;;;;;;;;;;26.30;44.60;;;;;;5054842;28;19996;-65
2023/06/25 07:09:28;;;;;;;;;;;26.30;44.60;;;;;;5039021;28;20383;-65
2023/06/25 07:11:54;;;;;;;;;;;26.30;44.60;;;;;;5040267;28;19908;-66
2023/06/25 07:14:19;;;;;;;;;;;26.30;44.60;;;;;;5040892;28;19904;-66
2023/06/25 07:16:45;;;;;;;;;;;26.30;44.60;;;;;;5040193;28;19909;-65
2023/06/25 07:19:11;;;;;;;;;;;26.30;44.60;;;;;;5041344;28;19904;-65
2023/06/25 07:21:37;;;;;;;;;;;26.30;44.60;;;;;;5039958;28;20397;-65
2023/06/25 07:24:02;;;;;;;;;;;26.30;44.60;;;;;;5038278;28;20412;-66
2023/06/25 07:26:28;;;;;;;;;;;26.30;44.60;;;;;;5036175;28;20018;-65
2023/06/25 07:28:53;;;;;;;;;;;26.30;44.60;;;;;;5041022;28;20419;-66
2023/06/25 07:31:19;;;;;;;;;;;26.30;44.60;;;;;;5043285;28;19951;-66
2023/06/25 07:33:44;;;;;;;;;;;26.30;44.60;;;;;;5040964;28;19917;-66
2023/06/25 07:36:10;;;;;;;;;;;26.30;44.60;;;;;;5039896;28;19909;-65
2023/06/25 07:38:36;;;;;;;;;;;26.30;44.60;;;;;;5039969;28;20491;-65
2023/06/25 07:41:01;;;;;;;;;;;26.30;44.60;;;;;;5040989;28;19963;-65
2023/06/25 07:43:27;;;;;;;;;;;26.30;44.60;;;;;;5040132;28;19945;-65
2023/06/25 07:45:52;;;;;;;;;;;26.30;44.60;;;;;;5044253;28;19909;-65
2023/06/25 07:48:18;;;;;;;;;;;26.30;44.60;;;;;;5042839;28;20288;-65
2023/06/25 07:50:43;;;;;;;;;;;26.30;44.80;;;;;;5041308;28;19949;-66
2023/06/25 07:53:09;;;;;;;;;;;26.30;44.60;;;;;;5040424;28;19974;-65
2023/06/25 07:55:40;;;;;;;;;;;26.30;44.60;;;;;;5038108;28;19909;-65
2023/06/25 07:58:06;;;;;;;;;;;26.30;44.60;;;;;;5042833;28;19913;-66
2023/06/25 08:00:32;;;;;;;;;;;26.30;44.60;;;;;;5041999;28;19940;-66
2023/06/25 08:02:57;;;;;;;;;;;26.30;44.60;;;;;;5039538;28;19977;-66
2023/06/25 08:05:23;;;;;;;;;;;26.30;44.60;;;;;;5040913;28;19909;-66
2023/06/25 08:07:48;;;;;;;;;;;26.30;44.60;;;;;;5039390;28;19916;-65
2023/06/25 08:10:14;;;;;;;;;;;26.30;44.60;;;;;;5040250;28;19962;-66
2023/06/25 08:12:39;;;;;;;;;;;26.30;44.60;;;;;;5040606;28;19909;-65
2023/06/25 08:15:05;;;;;;;;;;;26.30;44.60;;;;;;5043240;28;19905;-66
2023/06/25 08:17:30;;;;;;;;;;;26.30;44.60;;;;;;5038573;28;19904;-66
2023/06/25 08:19:56;;;;;;;;;;;26.30;44.60;;;;;;5041053;28;19912;-66
2023/06/25 08:22:21;;;;;;;;;;;26.30;44.60;;;;;;5036939;28;19912;-65
2023/06/25 08:24:47;;;;;;;;;;;26.30;44.60;;;;;;5039438;28;19913;-66
2023/06/25 08:27:13;;;;;;;;;;;26.30;44.60;;;;;;5042186;28;20475;-65
2023/06/25 08:29:38;;;;;;;;;;;26.30;44.60;;;;;;5040259;28;19909;-66
2023/06/25 08:32:04;;;;;;;;;;;26.30;44.60;;;;;;5041711;28;19909;-65
2023/06/25 08:34:29;;;;;;;;;;;26.30;44.60;;;;;;5039297;28;20051;-66
2023/06/25 08:36:55;;;;;;;;;;;26.30;44.60;;;;;;5038485;28;19939;-66
2023/06/25 08:39:21;;;;;;;;;;;26.30;44.70;;;;;;5040088;28;20777;-66
2023/06/25 08:41:47;;;;;;;;;;;26.30;44.70;;;;;;5039276;28;20432;-66
2023/06/25 08:44:13;;;;;;;;;;;26.30;44.70;;;;;;5038665;28;19936;-65
2023/06/25 08:46:43;;;;;;;;;;;26.30;44.70;;;;;;5039829;28;19990;-65
2023/06/25 08:49:11;;;;;;;;;;;26.30;44.70;;;;;;5039365;28;19905;-65
2023/06/25 08:51:37;;;;;;;;;;;26.30;44.70;;;;;;5039475;28;19944;-66
2023/06/25 08:54:03;;;;;;;;;;;26.30;44.70;;;;;;5039390;28;19956;-66
2023/06/25 08:56:28;;;;;;;;;;;26.30;44.70;;;;;;5040203;28;19967;-65
2023/06/25 08:58:54;;;;;;;;;;;26.30;44.70;;;;;;5037592;28;19916;-66
2023/06/25 09:01:19;;;;;;;;;;;26.30;44.70;;;;;;5040651;28;19966;-66
2023/06/25 09:03:45;;;;;;;;;;;26.30;44.70;;;;;;5039220;28;19909;-65
2023/06/25 09:06:11;;;;;;;;;;;26.30;45.20;;;;;;5037990;28;19908;-65
2023/06/25 09:08:38;;;;;;;;;;;26.30;44.70;;;;;;5036268;28;20246;-66
2023/06/25 09:11:04;;;;;;;;;;;26.30;44.70;;;;;;5036198;28;20470;-65
2023/06/25 09:13:30;;;;;;;;;;;26.30;44.70;;;;;;5042415;28;19913;-66
2023/06/25 09:16:02;;;;;;;;;;;26.30;44.70;;;;;;5039731;28;19951;-66
2023/06/25 09:18:29;;;;;;;;;;;26.30;44.70;;;;;;5039334;28;20309;-66
2023/06/25 09:20:55;;;;;;;;;;;26.30;44.70;;;;;;5040286;28;19913;-65
2023/06/25 09:23:22;;;;;;;;;;;26.30;44.70;;;;;;5037988;28;19955;-66
2023/06/25 09:25:48;;;;;;;;;;;26.30;44.70;;;;;;5040719;28;19924;-66
2023/06/25 09:28:14;;;;;;;;;;;26.30;44.70;;;;;;5039307;28;20345;-66
2023/06/25 09:30:40;;;;;;;;;;;26.30;44.70;;;;;;5038844;28;19916;-66
2023/06/25 09:33:05;;;;;;;;;;;26.30;44.70;;;;;;5039076;28;20399;-66
2023/06/25 09:35:32;;;;;;;;;;;26.30;44.70;;;;;;5041350;28;19909;-66
2023/06/25 09:37:58;;;;;;;;;;;26.30;44.70;;;;;;5037178;28;19919;-66
2023/06/25 09:40:23;;;;;;;;;;;26.20;44.70;;;;;;5036908;28;20355;-66
2023/06/25 09:42:51;;;;;;;;;;;26.30;44.70;;;;;;5046650;28;19911;-65
2023/06/25 09:45:19;;;;;;;;;;;26.30;44.70;;;;;;5037759;28;19911;-66
2023/06/25 09:47:46;;;;;;;;;;;26.30;44.80;;;;;;5039029;28;20356;-65
2023/06/25 09:50:14;;;;;;;;;;;26.30;44.70;;;;;;5039472;28;19995;-66
2023/06/25 09:52:40;;;;;;;;;;;26.30;44.70;;;;;;5041236;28;19909;-65
2023/06/25 09:55:07;;;;;;;;;;;26.20;44.70;;;;;;5038062;28;20308;-66
2023/06/25 09:57:33;;;;;;;;;;;26.30;44.80;;;;;;5035594;28;19909;-66
2023/06/25 09:59:59;;;;;;;;;;;26.30;44.80;;;;;;5039055;28;19913;-65
2023/06/25 10:02:24;;;;;;;;;;;26.30;44.80;;;;;;5038689;28;20061;-65
2023/06/25 10:04:50;;;;;;;;;;;26.30;44.80;;;;;;5040163;28;20287;-65
2023/06/25 10:07:16;;;;;;;;;;;26.30;44.80;;;;;;5041401;28;19909;-65
2023/06/25 10:09:54;;;;;;;;;;;26.30;44.80;;;;;;5037375;28;20576;-66
2023/06/25 10:12:19;;;;;;;;;;;26.30;44.80;;;;;;5037881;28;19945;-65
2023/06/25 10:14:46;;;;;;;;;;;26.30;44.80;;;;;;5038967;28;20369;-65
2023/06/25 10:17:12;;;;;;;;;;;26.30;44.80;;;;;;5036769;28;19951;-65
2023/06/25 10:19:37;;;;;;;;;;;26.30;44.80;;;;;;5039450;28;19988;-66
2023/06/25 10:22:07;;;;;;;;;;;26.30;44.90;;;;;;5038260;28;19908;-65
2023/06/25 10:24:39;;;;;;;;;;;26.30;44.80;;;;;;5038132;28;19967;-66
2023/06/25 10:27:04;;;;;;;;;;;26.30;44.80;;;;;;5039269;28;19988;-65
2023/06/25 10:29:40;;;;;;;;;;;26.30;44.90;;;;;;5039171;28;20003;-65
2023/06/25 10:32:06;;;;;;;;;;;26.30;44.90;;;;;;5037846;28;19911;-65
2023/06/25 10:34:35;;;;;;;;;;;26.30;44.90;;;;;;5039969;28;20011;-65
2023/06/25 10:37:03;;;;;;;;;;;26.30;44.90;;;;;;5042154;28;19959;-65
2023/06/25 10:39:35;;;;;;;;;;;26.30;44.90;;;;;;5037029;28;19917;-65
2023/06/25 10:42:03;;;;;;;;;;;26.30;44.90;;;;;;5039517;28;20354;-66
2023/06/25 10:44:28;;;;;;;;;;;26.30;44.90;;;;;;5045596;28;19912;-66
2023/06/25 10:47:07;;;;;;;;;;;26.30;44.90;;;;;;5043038;28;20298;-66
2023/06/25 10:49:33;;;;;;;;;;;26.30;44.90;;;;;;5043049;28;19919;-65
2023/06/25 10:51:59;;;;;;;;;;;26.30;44.90;;;;;;5039889;28;19912;-65
2023/06/25 10:54:24;;;;;;;;;;;26.30;44.90;;;;;;5038865;28;19905;-66
2023/06/25 10:56:53;;;;;;;;;;;26.30;44.90;;;;;;5042996;28;20334;-66
2023/06/25 10:59:22;;;;;;;;;;;26.30;44.90;;;;;;5041865;28;19991;-66
2023/06/25 11:01:49;;;;;;;;;;;26.30;44.90;;;;;;5038734;28;19909;-65
2023/06/25 11:04:15;;;;;;;;;;;26.30;44.90;;;;;;5040475;28;19908;-66
2023/06/25 11:06:40;;;;;;;;;;;26.30;44.80;;;;;;5039270;28;19911;-66
2023/06/25 11:09:06;;;;;;;;;;;26.30;44.80;;;;;;5041812;28;20011;-65
2023/06/25 11:11:31;;;;;;;;;;;26.30;44.90;;;;;;5041589;28;19983;-66
2023/06/25 11:13:57;;;;;;;;;;;26.30;44.90;;;;;;5043148;28;20288;-65
2023/06/25 11:16:22;;;;;;;;;;;26.30;44.80;;;;;;5041514;28;19905;-65
2023/06/25 11:18:51;;;;;;;;;;;26.30;44.80;;;;;;5043465;28;20280;-65
2023/06/25 11:21:16;;;;;;;;;;;26.30;44.80;;;;;;5039125;28;19913;-65
2023/06/25 11:23:45;;;;;;;;;;;26.30;44.90;;;;;;5037390;28;20353;-65
2023/06/25 11:26:13;;;;;;;;;;;26.30;44.80;;;;;;5054771;28;19905;-66
2023/06/25 11:28:39;;;;;;;;;;;26.30;44.90;;;;;;5039357;28;20409;-65
2023/06/25 11:31:04;;;;;;;;;;;26.30;44.80;;;;;;5039847;28;19948;-65
2023/06/25 11:33:30;;;;;;;;;;;26.30;44.80;;;;;;5040737;28;19995;-66
2023/06/25 11:36:09;;;;;;;;;;;26.30;44.90;;;;;;5042896;28;19912;-66
2023/06/25 11:38:34;;;;;;;;;;;26.30;44.80;;;;;;5041252;28;19913;-65
2023/06/25 11:41:00;;;;;;;;;;;26.30;44.80;;;;;;5038030;28;19909;-66
2023/06/25 11:43:26;;;;;;;;;;;26.30;44.90;;;;;;5040990;28;20403;-66
2023/06/25 11:45:52;;;;;;;;;;;26.30;44.80;;;;;;5039619;28;19936;-65
2023/06/25 11:48:18;;;;;;;;;;;26.30;44.80;;;;;;5040895;28;19919;-65
2023/06/25 11:50:44;;;;;;;;;;;26.30;44.90;;;;;;5041545;28;20435;-65
2023/06/25 11:53:10;;;;;;;;;;;26.30;44.80;;;;;;5039334;28;20015;-66
2023/06/25 11:55:36;;;;;;;;;;;26.30;44.80;;;;;;5039761;28;20007;-66
2023/06/25 11:58:01;;;;;;;;;;;26.30;44.80;;;;;;5042295;28;19916;-65
2023/06/25 12:00:27;;;;;;;;;;;26.30;44.80;;;;;;5039890;28;19967;-66
2023/06/25 12:02:52;;;;;;;;;;;26.30;44.80;;;;;;5041305;28;19909;-66
2023/06/25 12:05:18;;;;;;;;;;;26.30;45.40;;;;;;5041231;28;19943;-66
2023/06/25 12:07:44;;;;;;;;;;;26.30;44.90;;;;;;5039266;28;19932;-66
2023/06/25 12:10:09;;;;;;;;;;;26.30;44.80;;;;;;5038807;28;20269;-66
2023/06/25 12:12:35;;;;;;;;;;;26.30;44.80;;;;;;5039186;28;19905;-66
2023/06/25 12:15:00;;;;;;;;;;;26.30;44.80;;;;;;5041050;28;19963;-67
2023/06/25 12:17:26;;;;;;;;;;;26.30;44.80;;;;;;5040906;28;20343;-66
2023/06/25 12:19:51;;;;;;;;;;;26.30;44.90;;;;;;5040986;28;19920;-66
2023/06/25 12:22:17;;;;;;;;;;;26.30;44.90;;;;;;5038813;28;19913;-67
2023/06/25 12:24:42;;;;;;;;;;;26.30;44.80;;;;;;5041001;28;19959;-67
2023/06/25 12:27:08;;;;;;;;;;;26.30;44.90;;;;;;5040847;28;19936;-68
2023/06/25 12:29:33;;;;;;;;;;;26.30;44.80;;;;;;5038159;28;19916;-68
2023/06/25 12:31:59;;;;;;;;;;;26.30;44.80;;;;;;5040959;28;19912;-68
2023/06/25 12:34:24;;;;;;;;;;;26.40;44.90;;;;;;5041122;28;19963;-68
2023/06/25 12:36:50;;;;;;;;;;;26.30;44.80;;;;;;5041451;28;19954;-68
2023/06/25 12:39:15;;;;;;;;;;;26.30;44.80;;;;;;5039296;28;20399;-68
2023/06/25 12:41:41;;;;;;;;;;;26.30;44.80;;;;;;5041193;28;19905;-68
2023/06/25 12:44:06;;;;;;;;;;;26.30;44.90;;;;;;5040542;28;20333;-68
2023/06/25 12:46:32;;;;;;;;;;;26.40;44.90;;;;;;5040745;28;19914;-68
2023/06/25 12:48:57;;;;;;;;;;;26.40;44.90;;;;;;5039228;28;20038;-68
2023/06/25 12:51:22;;;;;;;;;;;26.40;44.90;;;;;;5037517;28;19908;-68
2023/06/25 12:53:48;;;;;;;;;;;26.40;44.90;;;;;;5041402;28;19955;-68
2023/06/25 12:56:13;;;;;;;;;;;26.40;44.90;;;;;;5038644;28;19916;-68
2023/06/25 12:58:39;;;;;;;;;;;26.40;44.90;;;;;;5038487;28;20288;-68
2023/06/25 13:01:05;;;;;;;;;;;26.40;44.90;;;;;;5041136;28;19916;-68
2023/06/25 13:03:30;;;;;;;;;;;26.40;44.90;;;;;;5038312;28;19909;-68
2023/06/25 13:05:56;;;;;;;;;;;26.40;44.90;;;;;;5039502;28;19909;-68
2023/06/25 13:08:23;;;;;;;;;;;26.40;44.90;;;;;;5034644;28;19909;-68
2023/06/25 13:10:49;;;;;;;;;;;26.40;44.90;;;;;;5038900;28;20332;-68
2023/06/25 13:13:14;;;;;;;;;;;26.40;44.90;;;;;;5042136;28;19974;-68
2023/06/25 13:15:40;;;;;;;;;;;26.50;44.90;;;;;;5054909;28;19912;-68
2023/06/25 13:18:05;;;;;;;;;;;26.50;45.00;;;;;;5038231;28;19945;-67
2023/06/25 13:20:31;;;;;;;;;;;26.40;44.90;;;;;;5039226;28;19908;-67
2023/06/25 13:22:56;;;;;;;;;;;26.40;44.90;;;;;;5038240;28;20012;-68
2023/06/25 13:25:22;;;;;;;;;;;26.50;45.00;;;;;;5036093;28;19916;-67
2023/06/25 13:27:47;;;;;;;;;;;26.50;45.30;;;;;;5036376;28;19951;-67
2023/06/25 13:30:13;;;;;;;;;;;26.50;45.10;;;;;;5041491;28;20156;-67
2023/06/25 13:32:39;;;;;;;;;;;26.50;44.90;;;;;;5037767;28;20418;-67
2023/06/25 13:35:04;;;;;;;;;;;26.40;44.70;;;;;;5037620;28;19916;-67
2023/06/25 13:37:30;;;;;;;;;;;26.40;44.70;;;;;;5037691;28;19932;-67
2023/06/25 13:39:55;;;;;;;;;;;26.50;44.80;;;;;;5035309;28;19951;-67
2023/06/25 13:42:21;;;;;;;;;;;26.50;44.70;;;;;;5037435;28;19908;-67
2023/06/25 13:44:46;;;;;;;;;;;26.40;44.70;;;;;;5039062;28;19909;-67
2023/06/25 13:47:12;;;;;;;;;;;26.50;44.80;;;;;;5038751;28;19905;-67
2023/06/25 13:49:38;;;;;;;;;;;26.40;44.80;;;;;;5037791;28;19928;-67
2023/06/25 13:52:04;;;;;;;;;;;26.50;44.80;;;;;;5040438;28;19908;-67
2023/06/25 13:54:29;;;;;;;;;;;26.50;44.90;;;;;;5039176;28;19908;-67
2023/06/25 13:56:55;;;;;;;;;;;26.40;44.80;;;;;;5036031;28;20300;-67
2023/06/25 13:59:20;;;;;;;;;;;26.50;44.90;;;;;;5037434;28;19909;-67
2023/06/25 14:01:46;;;;;;;;;;;26.50;44.90;;;;;;5044306;28;19912;-67
2023/06/25 14:04:11;;;;;;;;;;;26.40;44.90;;;;;;5037574;28;19978;-67
2023/06/25 14:06:37;;;;;;;;;;;26.50;44.90;;;;;;5037040;28;19912;-67
2023/06/25 14:09:03;;;;;;;;;;;26.50;44.90;;;;;;5039038;28;19916;-67